Terminal Aerodrome Forecast
Issued by NWS Cheyenne, WY

Home | Current Version | Previous Version | Text Only | Print | Product List | Glossary On
Versions: 1 2 3 4 5 6 7 8 9 10 11 12 13 14 15 16 17 18 19 20 21 22
000
FTUS45 KCYS 220500
TAFCYS
TAF
KCYS 220540Z 2206/2306 16010KT P6SM SCT070 BKN200
     FM220800 18011KT P6SM SCT005
     FM221300 21012KT P6SM -SHRA BKN100
     FM221600 24013G21KT P6SM -SHRA VCTS SCT050 BKN100CB
     FM222300 27011KT P6SM SCT150=

USA.gov is the U.S. government's official web portal to all federal, state and local government web resources and services.